sensor_id;sensor_type;location;lat;lon;timestamp;pressure;altitude;pressure_sealevel;temperature;humidity
50349;BME280;36250;48.740;22.174;2022-09-24T00:00:58;100532.03;;;6.02;100.00
50349;BME280;36250;48.740;22.174;2022-09-24T00:03:25;100532.84;;;6.03;100.00
50349;BME280;36250;48.740;22.174;2022-09-24T00:05:53;100534.66;;;6.02;100.00
50349;BME280;36250;48.740;22.174;2022-09-24T00:08:19;100531.31;;;6.00;100.00
50349;BME280;36250;48.740;22.174;2022-09-24T00:10:45;100534.09;;;5.99;100.00
50349;BME280;36250;48.740;22.174;2022-09-24T00:13:14;100532.44;;;5.98;100.00
50349;BME280;36250;48.740;22.174;2022-09-24T00:15:45;100528.47;;;5.93;100.00
50349;BME280;36250;48.740;22.174;2022-09-24T00:18:12;100524.50;;;5.89;100.00
50349;BME280;36250;48.740;22.174;2022-09-24T00:20:38;100523.16;;;5.85;100.00
50349;BME280;36250;48.740;22.174;2022-09-24T00:23:05;100519.47;;;5.78;100.00
50349;BME280;36250;48.740;22.174;2022-09-24T00:25:31;100517.47;;;5.72;100.00
50349;BME280;36250;48.740;22.174;2022-09-24T00:28:15;100516.63;;;5.71;100.00
50349;BME280;36250;48.740;22.174;2022-09-24T00:30:42;100511.13;;;5.64;100.00
50349;BME280;36250;48.740;22.174;2022-09-24T00:33:09;100506.78;;;5.55;100.00
50349;BME280;36250;48.740;22.174;2022-09-24T00:35:35;100495.22;;;5.48;100.00
50349;BME280;36250;48.740;22.174;2022-09-24T00:38:01;100500.91;;;5.43;100.00
50349;BME280;36250;48.740;22.174;2022-09-24T00:40:28;100501.91;;;5.42;100.00
50349;BME280;36250;48.740;22.174;2022-09-24T00:42:53;100490.88;;;5.39;100.00
50349;BME280;36250;48.740;22.174;2022-09-24T00:45:18;100492.84;;;5.36;100.00
50349;BME280;36250;48.740;22.174;2022-09-24T00:47:44;100494.91;;;5.33;100.00
50349;BME280;36250;48.740;22.174;2022-09-24T00:50:31;100494.25;;;5.31;100.00
50349;BME280;36250;48.740;22.174;2022-09-24T00:53:03;100499.34;;;5.32;100.00
50349;BME280;36250;48.740;22.174;2022-09-24T00:55:30;100508.34;;;5.30;100.00
50349;BME280;36250;48.740;22.174;2022-09-24T00:57:59;100497.72;;;5.31;100.00
50349;BME280;36250;48.740;22.174;2022-09-24T01:00:26;100502.00;;;5.32;100.00
50349;BME280;36250;48.740;22.174;2022-09-24T01:02:57;100497.97;;;5.28;100.00
50349;BME280;36250;48.740;22.174;2022-09-24T01:05:24;100501.38;;;5.20;100.00
50349;BME280;36250;48.740;22.174;2022-09-24T01:07:50;100497.53;;;5.15;100.00
50349;BME280;36250;48.740;22.174;2022-09-24T01:10:16;100498.38;;;5.15;100.00
50349;BME280;36250;48.740;22.174;2022-09-24T01:15:59;100488.84;;;5.14;100.00
50349;BME280;36250;48.740;22.174;2022-09-24T01:18:36;100489.41;;;5.08;100.00
50349;BME280;36250;48.740;22.174;2022-09-24T01:21:26;100496.09;;;5.02;100.00
50349;BME280;36250;48.740;22.174;2022-09-24T01:24:09;100490.84;;;5.02;100.00
50349;BME280;36250;48.740;22.174;2022-09-24T01:32:16;100488.41;;;5.09;100.00
50349;BME280;36250;48.740;22.174;2022-09-24T01:34:57;100479.88;;;5.07;100.00
50349;BME280;36250;48.740;22.174;2022-09-24T01:37:26;100481.69;;;5.06;100.00
50349;BME280;36250;48.740;22.174;2022-09-24T01:39:54;100483.63;;;5.04;100.00
50349;BME280;36250;48.740;22.174;2022-09-24T01:42:23;100487.38;;;5.02;100.00
50349;BME280;36250;48.740;22.174;2022-09-24T01:44:51;100487.53;;;5.00;100.00
50349;BME280;36250;48.740;22.174;2022-09-24T01:47:28;100490.28;;;4.99;100.00
50349;BME280;36250;48.740;22.174;2022-09-24T01:49:54;100487.56;;;4.90;100.00
50349;BME280;36250;48.740;22.174;2022-09-24T01:52:24;100489.94;;;4.84;100.00
50349;BME280;36250;48.740;22.174;2022-09-24T01:54:51;100487.09;;;4.77;100.00
50349;BME280;36250;48.740;22.174;2022-09-24T01:57:26;100487.53;;;4.72;100.00
50349;BME280;36250;48.740;22.174;2022-09-24T02:00:02;100486.72;;;4.72;100.00
50349;BME280;36250;48.740;22.174;2022-09-24T02:02:36;100481.22;;;4.65;100.00
50349;BME280;36250;48.740;22.174;2022-09-24T02:07:44;100482.47;;;4.61;100.00
50349;BME280;36250;48.740;22.174;2022-09-24T02:10:16;100478.31;;;4.58;100.00
50349;BME280;36250;48.740;22.174;2022-09-24T02:12:45;100479.06;;;4.51;100.00
50349;BME280;36250;48.740;22.174;2022-09-24T02:15:20;100477.94;;;4.53;100.00
50349;BME280;36250;48.740;22.174;2022-09-24T02:17:52;100475.69;;;4.58;100.00
50349;BME280;36250;48.740;22.174;2022-09-24T02:20:20;100474.72;;;4.59;100.00
50349;BME280;36250;48.740;22.174;2022-09-24T02:22:46;100481.63;;;4.60;100.00
50349;BME280;36250;48.740;22.174;2022-09-24T02:25:18;100485.81;;;4.53;100.00
50349;BME280;36250;48.740;22.174;2022-09-24T02:27:44;100478.66;;;4.45;100.00
50349;BME280;36250;48.740;22.174;2022-09-24T02:30:10;100484.88;;;4.44;100.00
50349;BME280;36250;48.740;22.174;2022-09-24T02:32:39;100480.47;;;4.45;100.00
50349;BME280;36250;48.740;22.174;2022-09-24T02:35:09;100484.34;;;4.41;100.00
50349;BME280;36250;48.740;22.174;2022-09-24T02:37:37;100484.06;;;4.44;100.00
50349;BME280;36250;48.740;22.174;2022-09-24T02:40:08;100481.13;;;4.47;100.00
50349;BME280;36250;48.740;22.174;2022-09-24T02:42:34;100493.28;;;4.48;100.00
50349;BME280;36250;48.740;22.174;2022-09-24T02:44:59;100486.09;;;4.50;100.00
50349;BME280;36250;48.740;22.174;2022-09-24T02:47:26;100484.03;;;4.54;100.00
50349;BME280;36250;48.740;22.174;2022-09-24T02:49:53;100483.56;;;4.58;100.00
50349;BME280;36250;48.740;22.174;2022-09-24T02:52:20;100480.13;;;4.58;100.00
50349;BME280;36250;48.740;22.174;2022-09-24T02:54:46;100476.53;;;4.59;100.00
50349;BME280;36250;48.740;22.174;2022-09-24T02:57:11;100473.91;;;4.59;100.00
50349;BME280;36250;48.740;22.174;2022-09-24T02:59:37;100480.66;;;4.61;100.00
50349;BME280;36250;48.740;22.174;2022-09-24T03:02:02;100470.56;;;4.67;100.00
50349;BME280;36250;48.740;22.174;2022-09-24T03:04:27;100482.81;;;4.76;100.00
50349;BME280;36250;48.740;22.174;2022-09-24T03:06:55;100487.31;;;4.84;100.00
50349;BME280;36250;48.740;22.174;2022-09-24T03:09:20;100491.72;;;4.93;100.00
50349;BME280;36250;48.740;22.174;2022-09-24T03:11:45;100486.59;;;4.91;100.00
50349;BME280;36250;48.740;22.174;2022-09-24T03:14:11;100486.06;;;4.88;100.00
50349;BME280;36250;48.740;22.174;2022-09-24T03:16:37;100490.50;;;4.87;100.00
50349;BME280;36250;48.740;22.174;2022-09-24T03:19:02;100491.16;;;4.89;100.00
50349;BME280;36250;48.740;22.174;2022-09-24T03:21:28;100485.09;;;4.89;100.00
50349;BME280;36250;48.740;22.174;2022-09-24T03:23:53;100491.03;;;4.91;100.00
50349;BME280;36250;48.740;22.174;2022-09-24T03:26:18;100493.50;;;4.92;100.00
50349;BME280;36250;48.740;22.174;2022-09-24T03:28:44;100484.22;;;4.98;100.00
50349;BME280;36250;48.740;22.174;2022-09-24T03:31:09;100481.31;;;5.01;100.00
50349;BME280;36250;48.740;22.174;2022-09-24T03:38:28;100489.03;;;5.03;100.00
50349;BME280;36250;48.740;22.174;2022-09-24T03:40:55;100483.34;;;5.07;100.00
50349;BME280;36250;48.740;22.174;2022-09-24T03:43:20;100486.34;;;5.13;100.00
50349;BME280;36250;48.740;22.174;2022-09-24T03:45:46;100484.25;;;5.16;100.00
50349;BME280;36250;48.740;22.174;2022-09-24T03:48:11;100482.44;;;5.17;100.00
50349;BME280;36250;48.740;22.174;2022-09-24T03:50:37;100486.03;;;5.16;100.00
50349;BME280;36250;48.740;22.174;2022-09-24T03:53:03;100480.94;;;5.14;100.00
50349;BME280;36250;48.740;22.174;2022-09-24T03:55:29;100492.94;;;5.17;100.00
50349;BME280;36250;48.740;22.174;2022-09-24T03:57:54;100490.19;;;5.18;100.00
50349;BME280;36250;48.740;22.174;2022-09-24T04:00:19;100490.03;;;5.20;100.00
50349;BME280;36250;48.740;22.174;2022-09-24T04:02:45;100496.63;;;5.24;100.00
50349;BME280;36250;48.740;22.174;2022-09-24T04:05:10;100492.06;;;5.26;100.00
50349;BME280;36250;48.740;22.174;2022-09-24T04:07:36;100497.00;;;5.29;100.00
50349;BME280;36250;48.740;22.174;2022-09-24T04:10:02;100492.47;;;5.31;100.00
50349;BME280;36250;48.740;22.174;2022-09-24T04:12:27;100495.75;;;5.33;100.00
50349;BME280;36250;48.740;22.174;2022-09-24T04:14:53;100489.00;;;5.31;100.00
50349;BME280;36250;48.740;22.174;2022-09-24T04:17:19;100497.16;;;5.28;100.00
50349;BME280;36250;48.740;22.174;2022-09-24T04:19:44;100497.59;;;5.23;100.00
50349;BME280;36250;48.740;22.174;2022-09-24T04:22:09;100492.81;;;5.18;100.00
50349;BME280;36250;48.740;22.174;2022-09-24T04:24:35;100493.78;;;5.17;100.00
50349;BME280;36250;48.740;22.174;2022-09-24T04:27:00;100492.94;;;5.17;100.00
50349;BME280;36250;48.740;22.174;2022-09-24T04:29:25;100492.44;;;5.13;100.00
50349;BME280;36250;48.740;22.174;2022-09-24T04:31:51;100496.84;;;5.13;100.00
50349;BME280;36250;48.740;22.174;2022-09-24T04:34:16;100492.13;;;5.16;100.00
50349;BME280;36250;48.740;22.174;2022-09-24T04:36:42;100495.44;;;5.18;100.00
50349;BME280;36250;48.740;22.174;2022-09-24T04:39:09;100494.31;;;5.21;100.00
50349;BME280;36250;48.740;22.174;2022-09-24T04:41:36;100497.31;;;5.26;100.00
50349;BME280;36250;48.740;22.174;2022-09-24T04:44:02;100489.13;;;5.29;100.00
50349;BME280;36250;48.740;22.174;2022-09-24T04:46:29;100483.88;;;5.29;100.00
50349;BME280;36250;48.740;22.174;2022-09-24T04:48:57;100487.34;;;5.30;100.00
50349;BME280;36250;48.740;22.174;2022-09-24T04:51:22;100496.91;;;5.21;100.00
50349;BME280;36250;48.740;22.174;2022-09-24T04:53:48;100494.50;;;5.10;100.00
50349;BME280;36250;48.740;22.174;2022-09-24T04:56:15;100492.91;;;4.99;100.00
50349;BME280;36250;48.740;22.174;2022-09-24T04:58:40;100494.19;;;4.95;100.00
50349;BME280;36250;48.740;22.174;2022-09-24T05:01:05;100497.06;;;5.01;100.00
50349;BME280;36250;48.740;22.174;2022-09-24T05:03:31;100495.19;;;5.12;100.00
50349;BME280;36250;48.740;22.174;2022-09-24T05:05:57;100499.78;;;5.28;100.00
50349;BME280;36250;48.740;22.174;2022-09-24T05:08:22;100494.19;;;5.41;100.00
50349;BME280;36250;48.740;22.174;2022-09-24T05:10:48;100498.53;;;5.50;100.00
50349;BME280;36250;48.740;22.174;2022-09-24T05:13:13;100496.50;;;5.62;100.00
50349;BME280;36250;48.740;22.174;2022-09-24T05:15:38;100506.09;;;5.71;100.00
50349;BME280;36250;48.740;22.174;2022-09-24T05:18:04;100501.88;;;5.78;100.00
50349;BME280;36250;48.740;22.174;2022-09-24T05:20:30;100505.91;;;5.91;100.00
50349;BME280;36250;48.740;22.174;2022-09-24T05:22:56;100504.19;;;6.00;100.00
50349;BME280;36250;48.740;22.174;2022-09-24T05:25:21;100511.34;;;6.07;100.00
50349;BME280;36250;48.740;22.174;2022-09-24T05:27:52;100506.81;;;6.18;100.00
50349;BME280;36250;48.740;22.174;2022-09-24T05:30:19;100513.09;;;6.25;100.00
50349;BME280;36250;48.740;22.174;2022-09-24T05:32:45;100516.94;;;6.31;100.00
50349;BME280;36250;48.740;22.174;2022-09-24T05:35:14;100515.50;;;6.36;100.00
50349;BME280;36250;48.740;22.174;2022-09-24T05:37:39;100512.28;;;6.51;100.00
50349;BME280;36250;48.740;22.174;2022-09-24T05:40:05;100520.78;;;6.71;100.00
50349;BME280;36250;48.740;22.174;2022-09-24T05:42:50;100520.69;;;6.89;100.00
50349;BME280;36250;48.740;22.174;2022-09-24T05:45:16;100525.50;;;7.02;100.00
50349;BME280;36250;48.740;22.174;2022-09-24T05:47:46;100526.22;;;7.21;100.00
50349;BME280;36250;48.740;22.174;2022-09-24T05:50:14;100528.69;;;7.14;100.00
50349;BME280;36250;48.740;22.174;2022-09-24T05:52:40;100526.66;;;7.08;100.00
50349;BME280;36250;48.740;22.174;2022-09-24T05:55:06;100528.50;;;7.07;100.00
50349;BME280;36250;48.740;22.174;2022-09-24T05:57:32;100522.94;;;7.27;100.00
50349;BME280;36250;48.740;22.174;2022-09-24T05:59:58;100521.66;;;7.48;100.00
50349;BME280;36250;48.740;22.174;2022-09-24T06:02:23;100524.31;;;7.64;100.00
50349;BME280;36250;48.740;22.174;2022-09-24T06:04:49;100528.44;;;7.83;100.00
50349;BME280;36250;48.740;22.174;2022-09-24T06:07:14;100526.50;;;8.02;100.00
50349;BME280;36250;48.740;22.174;2022-09-24T06:09:39;100521.50;;;8.24;100.00
50349;BME280;36250;48.740;22.174;2022-09-24T06:12:06;100521.66;;;8.39;100.00
50349;BME280;36250;48.740;22.174;2022-09-24T06:14:32;100525.91;;;8.48;100.00
50349;BME280;36250;48.740;22.174;2022-09-24T06:16:57;100526.41;;;8.60;100.00
50349;BME280;36250;48.740;22.174;2022-09-24T06:19:23;100523.03;;;8.75;100.00
50349;BME280;36250;48.740;22.174;2022-09-24T06:21:48;100529.28;;;8.90;100.00
50349;BME280;36250;48.740;22.174;2022-09-24T06:24:13;100530.75;;;8.93;100.00
50349;BME280;36250;48.740;22.174;2022-09-24T06:26:39;100529.75;;;8.94;100.00
50349;BME280;36250;48.740;22.174;2022-09-24T06:29:05;100525.59;;;8.99;100.00
50349;BME280;36250;48.740;22.174;2022-09-24T06:31:31;100526.91;;;9.04;100.00
50349;BME280;36250;48.740;22.174;2022-09-24T06:33:56;100525.75;;;9.06;100.00
50349;BME280;36250;48.740;22.174;2022-09-24T06:36:22;100534.97;;;9.10;100.00
50349;BME280;36250;48.740;22.174;2022-09-24T06:38:51;100533.31;;;9.09;100.00
50349;BME280;36250;48.740;22.174;2022-09-24T06:41:17;100544.41;;;9.05;100.00
50349;BME280;36250;48.740;22.174;2022-09-24T06:43:42;100537.78;;;9.09;100.00
50349;BME280;36250;48.740;22.174;2022-09-24T06:46:07;100543.69;;;9.19;100.00
50349;BME280;36250;48.740;22.174;2022-09-24T06:48:33;100534.22;;;9.25;100.00
50349;BME280;36250;48.740;22.174;2022-09-24T06:50:58;100544.94;;;9.32;100.00
50349;BME280;36250;48.740;22.174;2022-09-24T06:53:24;100543.09;;;9.40;100.00
50349;BME280;36250;48.740;22.174;2022-09-24T06:55:50;100551.59;;;9.51;100.00
50349;BME280;36250;48.740;22.174;2022-09-24T06:58:19;100547.09;;;9.60;100.00
50349;BME280;36250;48.740;22.174;2022-09-24T07:00:55;100554.34;;;9.57;100.00
50349;BME280;36250;48.740;22.174;2022-09-24T07:03:27;100546.84;;;9.69;100.00
50349;BME280;36250;48.740;22.174;2022-09-24T07:05:53;100541.97;;;9.81;100.00
50349;BME280;36250;48.740;22.174;2022-09-24T07:08:19;100536.59;;;9.90;100.00
50349;BME280;36250;48.740;22.174;2022-09-24T07:10:45;100535.84;;;10.04;100.00
50349;BME280;36250;48.740;22.174;2022-09-24T07:13:12;100542.97;;;10.19;100.00
50349;BME280;36250;48.740;22.174;2022-09-24T07:15:39;100534.03;;;10.20;100.00
50349;BME280;36250;48.740;22.174;2022-09-24T07:18:05;100547.53;;;10.25;100.00
50349;BME280;36250;48.740;22.174;2022-09-24T07:20:30;100544.09;;;10.39;100.00
50349;BME280;36250;48.740;22.174;2022-09-24T07:22:57;100541.97;;;10.58;100.00
50349;BME280;36250;48.740;22.174;2022-09-24T07:25:23;100535.75;;;10.66;100.00
50349;BME280;36250;48.740;22.174;2022-09-24T07:27:48;100541.97;;;10.73;100.00
50349;BME280;36250;48.740;22.174;2022-09-24T07:30:14;100545.34;;;10.82;100.00
50349;BME280;36250;48.740;22.174;2022-09-24T07:32:39;100552.72;;;11.01;100.00
50349;BME280;36250;48.740;22.174;2022-09-24T07:35:05;100555.34;;;11.16;100.00
50349;BME280;36250;48.740;22.174;2022-09-24T07:37:30;100551.03;;;11.30;100.00
50349;BME280;36250;48.740;22.174;2022-09-24T07:39:59;100566.31;;;11.28;100.00
50349;BME280;36250;48.740;22.174;2022-09-24T07:42:24;100568.19;;;11.35;100.00
50349;BME280;36250;48.740;22.174;2022-09-24T07:44:50;100563.25;;;11.47;100.00
50349;BME280;36250;48.740;22.174;2022-09-24T07:47:16;100564.00;;;11.62;100.00
50349;BME280;36250;48.740;22.174;2022-09-24T07:49:42;100557.13;;;11.68;100.00
50349;BME280;36250;48.740;22.174;2022-09-24T07:52:09;100572.53;;;11.79;100.00
50349;BME280;36250;48.740;22.174;2022-09-24T07:54:34;100575.03;;;12.02;100.00
50349;BME280;36250;48.740;22.174;2022-09-24T07:57:00;100569.31;;;12.06;100.00
50349;BME280;36250;48.740;22.174;2022-09-24T07:59:27;100568.22;;;12.22;100.00
50349;BME280;36250;48.740;22.174;2022-09-24T08:01:52;100570.66;;;12.45;100.00
50349;BME280;36250;48.740;22.174;2022-09-24T08:04:17;100564.13;;;12.48;100.00
50349;BME280;36250;48.740;22.174;2022-09-24T08:06:43;100573.06;;;12.40;100.00
50349;BME280;36250;48.740;22.174;2022-09-24T08:09:08;100571.50;;;12.52;100.00
50349;BME280;36250;48.740;22.174;2022-09-24T08:11:34;100564.03;;;12.69;100.00
50349;BME280;36250;48.740;22.174;2022-09-24T08:13:59;100579.44;;;12.81;100.00
50349;BME280;36250;48.740;22.174;2022-09-24T08:16:25;100578.41;;;12.75;98.08
50349;BME280;36250;48.740;22.174;2022-09-24T08:18:54;100584.19;;;12.85;99.95
50349;BME280;36250;48.740;22.174;2022-09-24T08:21:20;100575.41;;;12.92;98.67
50349;BME280;36250;48.740;22.174;2022-09-24T08:23:46;100568.72;;;13.02;98.70
50349;BME280;36250;48.740;22.174;2022-09-24T08:26:12;100578.19;;;13.25;98.50
50349;BME280;36250;48.740;22.174;2022-09-24T08:28:38;100576.19;;;13.34;96.18
50349;BME280;36250;48.740;22.174;2022-09-24T08:31:07;100578.66;;;13.36;95.78
50349;BME280;36250;48.740;22.174;2022-09-24T08:33:35;100567.50;;;13.54;94.81
50349;BME280;36250;48.740;22.174;2022-09-24T08:36:03;100569.34;;;13.60;94.10
50349;BME280;36250;48.740;22.174;2022-09-24T08:38:29;100570.19;;;13.81;96.02
50349;BME280;36250;48.740;22.174;2022-09-24T08:41:06;100571.44;;;13.98;92.69
50349;BME280;36250;48.740;22.174;2022-09-24T08:43:45;100570.00;;;13.89;91.86
50349;BME280;36250;48.740;22.174;2022-09-24T08:46:46;100566.09;;;13.85;92.42
50349;BME280;36250;48.740;22.174;2022-09-24T08:49:37;100571.44;;;13.78;91.47
50349;BME280;36250;48.740;22.174;2022-09-24T08:54:52;100571.84;;;13.95;92.80
50349;BME280;36250;48.740;22.174;2022-09-24T08:57:19;100573.50;;;13.96;90.43
50349;BME280;36250;48.740;22.174;2022-09-24T08:59:49;100587.81;;;14.02;93.25
50349;BME280;36250;48.740;22.174;2022-09-24T09:03:14;100569.59;;;14.12;91.21
50349;BME280;36250;48.740;22.174;2022-09-24T09:05:24;100572.47;;;14.17;91.08
50349;BME280;36250;48.740;22.174;2022-09-24T09:08:04;100565.91;;;14.27;90.82
50349;BME280;36250;48.740;22.174;2022-09-24T09:10:37;100562.00;;;14.36;89.51
50349;BME280;36250;48.740;22.174;2022-09-24T09:15:41;100564.25;;;14.53;89.08
50349;BME280;36250;48.740;22.174;2022-09-24T09:18:17;100562.38;;;14.60;87.33
50349;BME280;36250;48.740;22.174;2022-09-24T09:20:48;100565.44;;;14.70;86.73
50349;BME280;36250;48.740;22.174;2022-09-24T09:23:18;100566.47;;;14.62;85.80
50349;BME280;36250;48.740;22.174;2022-09-24T09:25:46;100565.88;;;14.47;86.28
50349;BME280;36250;48.740;22.174;2022-09-24T09:28:15;100565.69;;;14.48;87.13
50349;BME280;36250;48.740;22.174;2022-09-24T09:31:23;100569.72;;;14.64;87.07
50349;BME280;36250;48.740;22.174;2022-09-24T09:36:24;100557.84;;;14.67;85.24
50349;BME280;36250;48.740;22.174;2022-09-24T09:41:46;100561.88;;;15.03;85.60
50349;BME280;36250;48.740;22.174;2022-09-24T09:44:21;100557.56;;;15.02;84.94
50349;BME280;36250;48.740;22.174;2022-09-24T09:47:11;100555.84;;;15.15;84.36
50349;BME280;36250;48.740;22.174;2022-09-24T09:49:40;100555.38;;;15.31;84.59
50349;BME280;36250;48.740;22.174;2022-09-24T09:52:15;100556.75;;;15.41;84.04
50349;BME280;36250;48.740;22.174;2022-09-24T09:54:42;100552.16;;;15.55;83.03
50349;BME280;36250;48.740;22.174;2022-09-24T09:57:13;100553.19;;;15.54;82.45
50349;BME280;36250;48.740;22.174;2022-09-24T09:59:45;100550.56;;;15.47;81.05
50349;BME280;36250;48.740;22.174;2022-09-24T10:04:45;100558.09;;;15.18;84.19
50349;BME280;36250;48.740;22.174;2022-09-24T10:07:19;100543.88;;;15.31;82.59
50349;BME280;36250;48.740;22.174;2022-09-24T10:09:45;100548.94;;;15.46;82.33
50349;BME280;36250;48.740;22.174;2022-09-24T10:12:17;100550.00;;;15.38;83.31
50349;BME280;36250;48.740;22.174;2022-09-24T10:14:59;100543.78;;;15.12;82.43
50349;BME280;36250;48.740;22.174;2022-09-24T10:17:33;100546.66;;;15.04;85.32
50349;BME280;36250;48.740;22.174;2022-09-24T10:20:00;100543.66;;;15.32;83.48
50349;BME280;36250;48.740;22.174;2022-09-24T10:22:27;100534.56;;;15.40;84.05
50349;BME280;36250;48.740;22.174;2022-09-24T10:24:54;100538.16;;;15.59;82.95
50349;BME280;36250;48.740;22.174;2022-09-24T10:27:29;100527.47;;;15.59;82.33
50349;BME280;36250;48.740;22.174;2022-09-24T10:29:56;100527.91;;;15.56;82.84
50349;BME280;36250;48.740;22.174;2022-09-24T10:32:40;100525.06;;;15.51;82.57
50349;BME280;36250;48.740;22.174;2022-09-24T10:35:20;100518.09;;;15.50;82.78
50349;BME280;36250;48.740;22.174;2022-09-24T10:37:57;100511.63;;;15.64;82.88
50349;BME280;36250;48.740;22.174;2022-09-24T10:40:28;100517.09;;;15.76;82.54
50349;BME280;36250;48.740;22.174;2022-09-24T10:43:00;100514.13;;;15.91;79.16
50349;BME280;36250;48.740;22.174;2022-09-24T10:53:46;100499.34;;;16.33;78.68
50349;BME280;36250;48.740;22.174;2022-09-24T10:56:33;100500.50;;;15.68;80.20
50349;BME280;36250;48.740;22.174;2022-09-24T11:02:17;100505.91;;;15.86;80.28
50349;BME280;36250;48.740;22.174;2022-09-24T11:05:09;100495.88;;;15.82;80.16
50349;BME280;36250;48.740;22.174;2022-09-24T11:07:53;100496.84;;;15.94;80.66
50349;BME280;36250;48.740;22.174;2022-09-24T11:10:51;100499.34;;;15.89;80.14
50349;BME280;36250;48.740;22.174;2022-09-24T11:16:35;100504.94;;;15.81;80.33
50349;BME280;36250;48.740;22.174;2022-09-24T11:21:59;100498.06;;;15.66;80.07
50349;BME280;36250;48.740;22.174;2022-09-24T11:24:38;100499.81;;;15.79;81.39
50349;BME280;36250;48.740;22.174;2022-09-24T11:27:31;100500.91;;;15.97;79.87
50349;BME280;36250;48.740;22.174;2022-09-24T11:30:20;100491.53;;;15.87;81.18
50349;BME280;36250;48.740;22.174;2022-09-24T11:38:21;100488.41;;;16.16;79.53
50349;BME280;36250;48.740;22.174;2022-09-24T11:41:07;100483.13;;;16.09;80.93
50349;BME280;36250;48.740;22.174;2022-09-24T11:43:55;100483.06;;;16.16;78.91
50349;BME280;36250;48.740;22.174;2022-09-24T11:57:23;100471.31;;;15.73;81.32
50349;BME280;36250;48.740;22.174;2022-09-24T12:00:03;100472.72;;;15.50;82.55
50349;BME280;36250;48.740;22.174;2022-09-24T12:07:56;100468.66;;;16.17;81.07
50349;BME280;36250;48.740;22.174;2022-09-24T12:10:42;100461.25;;;16.56;80.19
50349;BME280;36250;48.740;22.174;2022-09-24T12:13:23;100457.28;;;16.77;78.51
50349;BME280;36250;48.740;22.174;2022-09-24T12:15:55;100453.75;;;16.65;79.01
50349;BME280;36250;48.740;22.174;2022-09-24T12:18:25;100455.22;;;16.98;78.66
50349;BME280;36250;48.740;22.174;2022-09-24T12:20:55;100450.53;;;17.36;75.50
50349;BME280;36250;48.740;22.174;2022-09-24T12:23:25;100447.09;;;17.95;73.13
50349;BME280;36250;48.740;22.174;2022-09-24T12:25:54;100440.25;;;18.52;69.50
50349;BME280;36250;48.740;22.174;2022-09-24T12:28:21;100436.16;;;18.90;67.19
50349;BME280;36250;48.740;22.174;2022-09-24T12:31:25;100443.13;;;19.72;63.62
50349;BME280;36250;48.740;22.174;2022-09-24T12:34:38;100440.00;;;20.81;62.25
50349;BME280;36250;48.740;22.174;2022-09-24T12:37:15;100441.25;;;20.06;61.07
50349;BME280;36250;48.740;22.174;2022-09-24T12:39:52;100424.03;;;21.34;57.06
50349;BME280;36250;48.740;22.174;2022-09-24T12:42:20;100440.97;;;20.08;59.30
50349;BME280;36250;48.740;22.174;2022-09-24T12:44:53;100439.31;;;20.24;59.45
50349;BME280;36250;48.740;22.174;2022-09-24T12:47:27;100438.38;;;20.13;58.97
50349;BME280;36250;48.740;22.174;2022-09-24T12:49:57;100426.34;;;22.54;53.14
50349;BME280;36250;48.740;22.174;2022-09-24T12:52:26;100417.41;;;21.85;53.10
50349;BME280;36250;48.740;22.174;2022-09-24T12:54:58;100418.63;;;24.93;45.35
50349;BME280;36250;48.740;22.174;2022-09-24T12:57:25;100415.06;;;23.77;45.48
50349;BME280;36250;48.740;22.174;2022-09-24T13:00:02;100411.94;;;21.37;51.57
50349;BME280;36250;48.740;22.174;2022-09-24T13:02:44;100417.91;;;20.12;54.70
50349;BME280;36250;48.740;22.174;2022-09-24T13:05:25;100415.72;;;19.52;57.57
50349;BME280;36250;48.740;22.174;2022-09-24T13:08:21;100415.50;;;20.33;56.16
50349;BME280;36250;48.740;22.174;2022-09-24T13:11:00;100412.47;;;21.01;53.85
50349;BME280;36250;48.740;22.174;2022-09-24T13:13:32;100411.78;;;20.61;55.76
50349;BME280;36250;48.740;22.174;2022-09-24T13:16:04;100414.50;;;19.43;59.68
50349;BME280;36250;48.740;22.174;2022-09-24T13:18:32;100412.56;;;19.38;60.69
50349;BME280;36250;48.740;22.174;2022-09-24T13:21:02;100409.06;;;21.49;55.03
50349;BME280;36250;48.740;22.174;2022-09-24T13:23:51;100415.94;;;19.85;54.70
50349;BME280;36250;48.740;22.174;2022-09-24T13:26:32;100409.41;;;18.66;56.91
50349;BME280;36250;48.740;22.174;2022-09-24T13:29:03;100401.28;;;17.73;59.46
50349;BME280;36250;48.740;22.174;2022-09-24T13:31:45;100402.88;;;18.91;59.17
50349;BME280;36250;48.740;22.174;2022-09-24T13:34:19;100393.50;;;19.57;58.37
50349;BME280;36250;48.740;22.174;2022-09-24T13:37:10;100390.41;;;19.14;59.38
50349;BME280;36250;48.740;22.174;2022-09-24T13:39:44;100384.16;;;20.44;57.39
50349;BME280;36250;48.740;22.174;2022-09-24T13:44:53;100383.44;;;19.69;57.69
50349;BME280;36250;48.740;22.174;2022-09-24T13:47:42;100389.19;;;18.76;61.31
50349;BME280;36250;48.740;22.174;2022-09-24T13:50:27;100390.56;;;18.20;63.49
50349;BME280;36250;48.740;22.174;2022-09-24T13:55:32;100376.00;;;20.88;55.73
50349;BME280;36250;48.740;22.174;2022-09-24T13:57:58;100381.78;;;19.29;60.24
50349;BME280;36250;48.740;22.174;2022-09-24T14:00:28;100377.94;;;18.62;64.03
50349;BME280;36250;48.740;22.174;2022-09-24T14:03:03;100384.06;;;18.04;64.70
50349;BME280;36250;48.740;22.174;2022-09-24T14:05:36;100373.38;;;17.45;68.34
50349;BME280;36250;48.740;22.174;2022-09-24T14:08:07;100374.38;;;17.20;69.42